sensor_id;sensor_type;location;lat;lon;timestamp;P1;durP1;ratioP1;P2;durP2;ratioP2
62332;SDS011;48624;49.812;8.562;2022-12-24T00:01:42;9.85;;;2.00;;
62332;SDS011;48624;49.812;8.562;2022-12-24T00:04:11;10.63;;;2.33;;
62332;SDS011;48624;49.812;8.562;2022-12-24T00:06:37;5.72;;;2.10;;
62332;SDS011;48624;49.812;8.562;2022-12-24T00:09:02;6.28;;;2.15;;
62332;SDS011;48624;49.812;8.562;2022-12-24T00:11:29;9.82;;;2.25;;
62332;SDS011;48624;49.812;8.562;2022-12-24T00:13:55;6.53;;;1.85;;
62332;SDS011;48624;49.812;8.562;2022-12-24T00:16:20;7.78;;;1.55;;
62332;SDS011;48624;49.812;8.562;2022-12-24T00:18:46;14.25;;;2.33;;
62332;SDS011;48624;49.812;8.562;2022-12-24T00:21:11;5.20;;;1.67;;
62332;SDS011;48624;49.812;8.562;2022-12-24T00:23:36;13.68;;;2.30;;
62332;SDS011;48624;49.812;8.562;2022-12-24T00:26:04;7.20;;;2.05;;
62332;SDS011;48624;49.812;8.562;2022-12-24T00:28:30;8.13;;;2.33;;
62332;SDS011;48624;49.812;8.562;2022-12-24T00:30:55;11.18;;;2.17;;
62332;SDS011;48624;49.812;8.562;2022-12-24T00:33:20;11.68;;;1.95;;
62332;SDS011;48624;49.812;8.562;2022-12-24T00:35:48;9.50;;;1.80;;
62332;SDS011;48624;49.812;8.562;2022-12-24T00:38:14;8.98;;;2.10;;
62332;SDS011;48624;49.812;8.562;2022-12-24T00:40:39;10.15;;;1.98;;
62332;SDS011;48624;49.812;8.562;2022-12-24T00:43:05;11.50;;;1.95;;
62332;SDS011;48624;49.812;8.562;2022-12-24T00:45:30;5.22;;;1.40;;
62332;SDS011;48624;49.812;8.562;2022-12-24T00:47:55;10.00;;;2.60;;
62332;SDS011;48624;49.812;8.562;2022-12-24T00:50:21;10.35;;;3.05;;
62332;SDS011;48624;49.812;8.562;2022-12-24T00:52:46;15.95;;;2.80;;
62332;SDS011;48624;49.812;8.562;2022-12-24T00:55:12;11.82;;;1.80;;
62332;SDS011;48624;49.812;8.562;2022-12-24T00:57:37;10.88;;;1.95;;
62332;SDS011;48624;49.812;8.562;2022-12-24T01:00:03;8.30;;;1.67;;
62332;SDS011;48624;49.812;8.562;2022-12-24T01:02:28;9.38;;;2.00;;
62332;SDS011;48624;49.812;8.562;2022-12-24T01:04:54;8.45;;;1.83;;
62332;SDS011;48624;49.812;8.562;2022-12-24T01:07:35;5.15;;;1.42;;
62332;SDS011;48624;49.812;8.562;2022-12-24T01:10:01;11.45;;;1.67;;
62332;SDS011;48624;49.812;8.562;2022-12-24T01:12:26;12.93;;;2.08;;
62332;SDS011;48624;49.812;8.562;2022-12-24T01:14:52;9.93;;;1.70;;
62332;SDS011;48624;49.812;8.562;2022-12-24T01:17:17;9.65;;;2.00;;
62332;SDS011;48624;49.812;8.562;2022-12-24T01:19:42;8.30;;;1.92;;
62332;SDS011;48624;49.812;8.562;2022-12-24T01:22:08;12.30;;;2.65;;
62332;SDS011;48624;49.812;8.562;2022-12-24T01:24:33;13.30;;;2.55;;
62332;SDS011;48624;49.812;8.562;2022-12-24T01:26:58;11.23;;;2.45;;
62332;SDS011;48624;49.812;8.562;2022-12-24T01:29:24;7.15;;;1.98;;
62332;SDS011;48624;49.812;8.562;2022-12-24T01:31:49;6.00;;;2.08;;
62332;SDS011;48624;49.812;8.562;2022-12-24T01:34:14;12.75;;;1.98;;
62332;SDS011;48624;49.812;8.562;2022-12-24T01:36:40;12.30;;;1.73;;
62332;SDS011;48624;49.812;8.562;2022-12-24T01:39:05;8.50;;;2.13;;
62332;SDS011;48624;49.812;8.562;2022-12-24T01:41:31;10.32;;;1.65;;
62332;SDS011;48624;49.812;8.562;2022-12-24T01:46:41;22.77;;;2.50;;
62332;SDS011;48624;49.812;8.562;2022-12-24T01:49:07;11.80;;;2.15;;
62332;SDS011;48624;49.812;8.562;2022-12-24T01:51:39;11.82;;;2.53;;
62332;SDS011;48624;49.812;8.562;2022-12-24T01:54:10;12.63;;;1.85;;
62332;SDS011;48624;49.812;8.562;2022-12-24T01:56:42;7.18;;;2.25;;
62332;SDS011;48624;49.812;8.562;2022-12-24T01:59:11;8.85;;;1.65;;
62332;SDS011;48624;49.812;8.562;2022-12-24T02:01:39;13.55;;;3.08;;
62332;SDS011;48624;49.812;8.562;2022-12-24T02:04:11;12.95;;;2.00;;
62332;SDS011;48624;49.812;8.562;2022-12-24T02:06:45;9.85;;;2.28;;
62332;SDS011;48624;49.812;8.562;2022-12-24T02:09:10;6.88;;;1.52;;
62332;SDS011;48624;49.812;8.562;2022-12-24T02:11:36;12.65;;;1.70;;
62332;SDS011;48624;49.812;8.562;2022-12-24T02:14:05;10.27;;;2.30;;
62332;SDS011;48624;49.812;8.562;2022-12-24T02:27:21;8.18;;;2.22;;
62332;SDS011;48624;49.812;8.562;2022-12-24T02:30:13;6.80;;;1.65;;
62332;SDS011;48624;49.812;8.562;2022-12-24T02:32:54;9.30;;;2.42;;
62332;SDS011;48624;49.812;8.562;2022-12-24T02:35:29;12.82;;;3.00;;
62332;SDS011;48624;49.812;8.562;2022-12-24T02:38:04;10.25;;;2.38;;
62332;SDS011;48624;49.812;8.562;2022-12-24T02:40:40;10.70;;;2.42;;
62332;SDS011;48624;49.812;8.562;2022-12-24T02:43:11;13.00;;;1.90;;
62332;SDS011;48624;49.812;8.562;2022-12-24T02:45:41;8.13;;;2.00;;
62332;SDS011;48624;49.812;8.562;2022-12-24T02:48:10;12.60;;;2.20;;
62332;SDS011;48624;49.812;8.562;2022-12-24T02:50:39;7.85;;;2.08;;
62332;SDS011;48624;49.812;8.562;2022-12-24T02:53:04;8.05;;;1.77;;
62332;SDS011;48624;49.812;8.562;2022-12-24T02:55:37;13.93;;;1.80;;
62332;SDS011;48624;49.812;8.562;2022-12-24T03:03:48;8.25;;;2.10;;
62332;SDS011;48624;49.812;8.562;2022-12-24T03:09:19;9.63;;;1.88;;
62332;SDS011;48624;49.812;8.562;2022-12-24T03:11:56;13.65;;;2.55;;
62332;SDS011;48624;49.812;8.562;2022-12-24T03:14:28;11.18;;;2.63;;
62332;SDS011;48624;49.812;8.562;2022-12-24T03:16:55;8.60;;;2.35;;
62332;SDS011;48624;49.812;8.562;2022-12-24T03:19:23;8.18;;;1.98;;
62332;SDS011;48624;49.812;8.562;2022-12-24T03:21:49;8.65;;;2.03;;
62332;SDS011;48624;49.812;8.562;2022-12-24T03:24:15;13.57;;;2.47;;
62332;SDS011;48624;49.812;8.562;2022-12-24T03:26:41;12.18;;;2.05;;
62332;SDS011;48624;49.812;8.562;2022-12-24T03:29:09;6.03;;;2.35;;
62332;SDS011;48624;49.812;8.562;2022-12-24T03:31:39;8.68;;;1.95;;
62332;SDS011;48624;49.812;8.562;2022-12-24T03:34:09;10.70;;;1.70;;
62332;SDS011;48624;49.812;8.562;2022-12-24T03:36:35;9.57;;;1.77;;
62332;SDS011;48624;49.812;8.562;2022-12-24T03:39:01;8.10;;;1.75;;
62332;SDS011;48624;49.812;8.562;2022-12-24T03:41:27;7.40;;;1.95;;
62332;SDS011;48624;49.812;8.562;2022-12-24T03:43:52;12.30;;;2.17;;
62332;SDS011;48624;49.812;8.562;2022-12-24T03:46:18;9.00;;;2.22;;
62332;SDS011;48624;49.812;8.562;2022-12-24T03:48:43;11.35;;;2.25;;
62332;SDS011;48624;49.812;8.562;2022-12-24T03:51:15;16.42;;;2.47;;
62332;SDS011;48624;49.812;8.562;2022-12-24T03:53:42;7.88;;;2.03;;
62332;SDS011;48624;49.812;8.562;2022-12-24T03:56:08;9.00;;;1.40;;
62332;SDS011;48624;49.812;8.562;2022-12-24T03:58:33;13.32;;;2.08;;
62332;SDS011;48624;49.812;8.562;2022-12-24T04:01:00;14.40;;;1.75;;
62332;SDS011;48624;49.812;8.562;2022-12-24T04:03:25;9.27;;;1.75;;
62332;SDS011;48624;49.812;8.562;2022-12-24T04:06:00;9.88;;;2.22;;
62332;SDS011;48624;49.812;8.562;2022-12-24T04:08:30;7.97;;;2.05;;
62332;SDS011;48624;49.812;8.562;2022-12-24T04:10:56;11.32;;;1.60;;
62332;SDS011;48624;49.812;8.562;2022-12-24T04:13:21;14.27;;;2.70;;
62332;SDS011;48624;49.812;8.562;2022-12-24T04:15:57;5.50;;;2.50;;
62332;SDS011;48624;49.812;8.562;2022-12-24T04:18:23;9.77;;;1.67;;
62332;SDS011;48624;49.812;8.562;2022-12-24T04:20:49;11.00;;;1.80;;
62332;SDS011;48624;49.812;8.562;2022-12-24T04:23:14;7.55;;;1.83;;
62332;SDS011;48624;49.812;8.562;2022-12-24T04:25:39;9.68;;;2.00;;
62332;SDS011;48624;49.812;8.562;2022-12-24T04:28:04;11.13;;;2.10;;
62332;SDS011;48624;49.812;8.562;2022-12-24T04:30:30;11.80;;;2.35;;
62332;SDS011;48624;49.812;8.562;2022-12-24T04:32:55;15.40;;;2.17;;
62332;SDS011;48624;49.812;8.562;2022-12-24T04:35:20;13.32;;;2.05;;
62332;SDS011;48624;49.812;8.562;2022-12-24T04:37:45;9.23;;;1.90;;
62332;SDS011;48624;49.812;8.562;2022-12-24T04:40:11;12.80;;;2.58;;
62332;SDS011;48624;49.812;8.562;2022-12-24T04:42:36;9.95;;;2.30;;
62332;SDS011;48624;49.812;8.562;2022-12-24T04:45:02;9.70;;;3.42;;
62332;SDS011;48624;49.812;8.562;2022-12-24T04:47:27;11.18;;;3.03;;
62332;SDS011;48624;49.812;8.562;2022-12-24T04:49:52;14.65;;;3.38;;
62332;SDS011;48624;49.812;8.562;2022-12-24T04:52:18;8.00;;;2.63;;
62332;SDS011;48624;49.812;8.562;2022-12-24T04:54:43;10.68;;;2.10;;
62332;SDS011;48624;49.812;8.562;2022-12-24T04:57:08;14.85;;;3.13;;
62332;SDS011;48624;49.812;8.562;2022-12-24T04:59:33;8.18;;;1.70;;
62332;SDS011;48624;49.812;8.562;2022-12-24T05:01:59;13.20;;;2.85;;
62332;SDS011;48624;49.812;8.562;2022-12-24T05:04:24;9.98;;;2.80;;
62332;SDS011;48624;49.812;8.562;2022-12-24T05:06:49;8.90;;;2.53;;
62332;SDS011;48624;49.812;8.562;2022-12-24T05:09:15;10.45;;;2.63;;
62332;SDS011;48624;49.812;8.562;2022-12-24T05:11:40;11.50;;;2.92;;
62332;SDS011;48624;49.812;8.562;2022-12-24T05:14:05;18.88;;;2.80;;
62332;SDS011;48624;49.812;8.562;2022-12-24T05:16:31;13.23;;;2.03;;
62332;SDS011;48624;49.812;8.562;2022-12-24T05:18:56;10.85;;;2.78;;
62332;SDS011;48624;49.812;8.562;2022-12-24T05:21:22;9.75;;;3.13;;
62332;SDS011;48624;49.812;8.562;2022-12-24T05:23:49;12.23;;;2.85;;
62332;SDS011;48624;49.812;8.562;2022-12-24T05:29:07;14.98;;;3.00;;
62332;SDS011;48624;49.812;8.562;2022-12-24T05:31:33;11.38;;;2.70;;
62332;SDS011;48624;49.812;8.562;2022-12-24T05:34:00;9.82;;;2.85;;
62332;SDS011;48624;49.812;8.562;2022-12-24T05:36:26;12.90;;;2.70;;
62332;SDS011;48624;49.812;8.562;2022-12-24T05:38:51;18.98;;;2.42;;
62332;SDS011;48624;49.812;8.562;2022-12-24T05:41:17;13.02;;;2.72;;
62332;SDS011;48624;49.812;8.562;2022-12-24T05:43:44;16.63;;;3.40;;
62332;SDS011;48624;49.812;8.562;2022-12-24T05:46:11;13.68;;;2.88;;
62332;SDS011;48624;49.812;8.562;2022-12-24T05:48:38;11.73;;;2.55;;
62332;SDS011;48624;49.812;8.562;2022-12-24T05:51:04;12.15;;;2.63;;
62332;SDS011;48624;49.812;8.562;2022-12-24T05:53:32;11.02;;;2.55;;
62332;SDS011;48624;49.812;8.562;2022-12-24T05:56:01;14.00;;;3.40;;
62332;SDS011;48624;49.812;8.562;2022-12-24T05:58:28;7.25;;;1.80;;
62332;SDS011;48624;49.812;8.562;2022-12-24T06:00:53;13.23;;;2.75;;
62332;SDS011;48624;49.812;8.562;2022-12-24T06:03:19;13.48;;;3.13;;
62332;SDS011;48624;49.812;8.562;2022-12-24T06:05:44;11.82;;;2.78;;
62332;SDS011;48624;49.812;8.562;2022-12-24T06:08:09;16.27;;;3.00;;
62332;SDS011;48624;49.812;8.562;2022-12-24T06:10:34;14.48;;;2.90;;
62332;SDS011;48624;49.812;8.562;2022-12-24T06:13:00;18.95;;;3.35;;
62332;SDS011;48624;49.812;8.562;2022-12-24T06:15:25;19.75;;;3.70;;
62332;SDS011;48624;49.812;8.562;2022-12-24T06:17:50;12.13;;;3.15;;
62332;SDS011;48624;49.812;8.562;2022-12-24T06:20:16;20.85;;;3.75;;
62332;SDS011;48624;49.812;8.562;2022-12-24T06:22:41;7.38;;;2.92;;
62332;SDS011;48624;49.812;8.562;2022-12-24T06:25:06;19.80;;;3.92;;
62332;SDS011;48624;49.812;8.562;2022-12-24T06:27:32;15.95;;;3.25;;
62332;SDS011;48624;49.812;8.562;2022-12-24T06:29:57;13.10;;;3.05;;
62332;SDS011;48624;49.812;8.562;2022-12-24T06:32:23;10.82;;;2.65;;
62332;SDS011;48624;49.812;8.562;2022-12-24T06:34:48;18.95;;;2.42;;
62332;SDS011;48624;49.812;8.562;2022-12-24T06:37:13;16.35;;;3.40;;
62332;SDS011;48624;49.812;8.562;2022-12-24T06:39:43;20.10;;;3.60;;
62332;SDS011;48624;49.812;8.562;2022-12-24T06:42:09;16.27;;;3.53;;
62332;SDS011;48624;49.812;8.562;2022-12-24T06:44:36;14.80;;;2.92;;
62332;SDS011;48624;49.812;8.562;2022-12-24T06:47:01;18.67;;;3.45;;
62332;SDS011;48624;49.812;8.562;2022-12-24T06:49:27;12.02;;;2.88;;
62332;SDS011;48624;49.812;8.562;2022-12-24T06:51:52;11.90;;;2.92;;
62332;SDS011;48624;49.812;8.562;2022-12-24T06:54:17;14.18;;;3.35;;
62332;SDS011;48624;49.812;8.562;2022-12-24T06:56:43;14.32;;;3.38;;
62332;SDS011;48624;49.812;8.562;2022-12-24T06:59:08;11.88;;;3.42;;
62332;SDS011;48624;49.812;8.562;2022-12-24T07:01:34;18.27;;;3.13;;
62332;SDS011;48624;49.812;8.562;2022-12-24T07:03:59;11.02;;;3.33;;
62332;SDS011;48624;49.812;8.562;2022-12-24T07:06:26;16.80;;;3.47;;
62332;SDS011;48624;49.812;8.562;2022-12-24T07:08:53;17.70;;;3.10;;
62332;SDS011;48624;49.812;8.562;2022-12-24T07:11:19;14.65;;;3.63;;
62332;SDS011;48624;49.812;8.562;2022-12-24T07:13:45;15.85;;;2.95;;
62332;SDS011;48624;49.812;8.562;2022-12-24T07:16:11;8.27;;;2.70;;
62332;SDS011;48624;49.812;8.562;2022-12-24T07:18:37;13.95;;;4.60;;
62332;SDS011;48624;49.812;8.562;2022-12-24T07:21:03;16.77;;;3.50;;
62332;SDS011;48624;49.812;8.562;2022-12-24T07:23:29;23.00;;;3.50;;
62332;SDS011;48624;49.812;8.562;2022-12-24T07:25:58;11.63;;;3.08;;
62332;SDS011;48624;49.812;8.562;2022-12-24T07:28:28;16.80;;;2.75;;
62332;SDS011;48624;49.812;8.562;2022-12-24T07:30:54;15.55;;;3.95;;
62332;SDS011;48624;49.812;8.562;2022-12-24T07:33:23;19.25;;;3.28;;
62332;SDS011;48624;49.812;8.562;2022-12-24T07:35:56;19.08;;;6.25;;
62332;SDS011;48624;49.812;8.562;2022-12-24T07:38:31;22.08;;;3.63;;
62332;SDS011;48624;49.812;8.562;2022-12-24T07:40:58;20.63;;;7.18;;
62332;SDS011;48624;49.812;8.562;2022-12-24T07:43:25;18.73;;;5.07;;
62332;SDS011;48624;49.812;8.562;2022-12-24T07:45:53;19.27;;;5.40;;
62332;SDS011;48624;49.812;8.562;2022-12-24T07:48:19;14.48;;;3.35;;
62332;SDS011;48624;49.812;8.562;2022-12-24T07:50:44;14.38;;;3.15;;
62332;SDS011;48624;49.812;8.562;2022-12-24T07:53:10;22.63;;;6.07;;
62332;SDS011;48624;49.812;8.562;2022-12-24T07:55:38;15.00;;;3.65;;
62332;SDS011;48624;49.812;8.562;2022-12-24T07:58:03;19.95;;;3.65;;
62332;SDS011;48624;49.812;8.562;2022-12-24T08:00:38;19.77;;;3.70;;
62332;SDS011;48624;49.812;8.562;2022-12-24T08:03:03;18.17;;;3.38;;
62332;SDS011;48624;49.812;8.562;2022-12-24T08:05:32;17.38;;;3.72;;
62332;SDS011;48624;49.812;8.562;2022-12-24T08:07:58;19.02;;;4.20;;
62332;SDS011;48624;49.812;8.562;2022-12-24T08:10:23;20.48;;;3.70;;
62332;SDS011;48624;49.812;8.562;2022-12-24T08:12:50;19.08;;;4.68;;
62332;SDS011;48624;49.812;8.562;2022-12-24T08:15:15;22.98;;;3.97;;
62332;SDS011;48624;49.812;8.562;2022-12-24T08:17:41;23.13;;;4.15;;
62332;SDS011;48624;49.812;8.562;2022-12-24T08:20:06;18.10;;;3.75;;
62332;SDS011;48624;49.812;8.562;2022-12-24T08:22:34;19.33;;;4.25;;
62332;SDS011;48624;49.812;8.562;2022-12-24T08:25:00;13.65;;;3.50;;
62332;SDS011;48624;49.812;8.562;2022-12-24T08:27:26;12.93;;;3.92;;
62332;SDS011;48624;49.812;8.562;2022-12-24T08:29:52;16.83;;;3.65;;
62332;SDS011;48624;49.812;8.562;2022-12-24T08:32:17;11.15;;;3.85;;
62332;SDS011;48624;49.812;8.562;2022-12-24T08:34:42;15.30;;;3.75;;
62332;SDS011;48624;49.812;8.562;2022-12-24T08:37:08;19.20;;;3.78;;
62332;SDS011;48624;49.812;8.562;2022-12-24T08:39:33;17.25;;;3.67;;
62332;SDS011;48624;49.812;8.562;2022-12-24T08:41:58;13.27;;;2.85;;
62332;SDS011;48624;49.812;8.562;2022-12-24T08:44:24;16.63;;;3.28;;
62332;SDS011;48624;49.812;8.562;2022-12-24T08:46:49;18.73;;;3.83;;
62332;SDS011;48624;49.812;8.562;2022-12-24T08:49:14;17.95;;;3.47;;
62332;SDS011;48624;49.812;8.562;2022-12-24T08:51:40;17.65;;;3.10;;
62332;SDS011;48624;49.812;8.562;2022-12-24T08:54:05;11.30;;;3.65;;
62332;SDS011;48624;49.812;8.562;2022-12-24T08:56:31;17.23;;;3.20;;
62332;SDS011;48624;49.812;8.562;2022-12-24T08:59:00;17.50;;;4.13;;
62332;SDS011;48624;49.812;8.562;2022-12-24T09:01:25;11.73;;;2.85;;
62332;SDS011;48624;49.812;8.562;2022-12-24T09:03:51;15.68;;;3.72;;
62332;SDS011;48624;49.812;8.562;2022-12-24T09:06:16;12.73;;;4.28;;
62332;SDS011;48624;49.812;8.562;2022-12-24T09:08:42;14.02;;;2.90;;
62332;SDS011;48624;49.812;8.562;2022-12-24T09:11:13;20.92;;;4.72;;
62332;SDS011;48624;49.812;8.562;2022-12-24T09:13:40;20.13;;;4.20;;
62332;SDS011;48624;49.812;8.562;2022-12-24T09:16:06;19.10;;;4.72;;
62332;SDS011;48624;49.812;8.562;2022-12-24T09:18:32;12.75;;;3.22;;
62332;SDS011;48624;49.812;8.562;2022-12-24T09:20:59;12.93;;;3.90;;
62332;SDS011;48624;49.812;8.562;2022-12-24T09:23:25;12.15;;;2.55;;
62332;SDS011;48624;49.812;8.562;2022-12-24T09:25:51;18.48;;;4.25;;
62332;SDS011;48624;49.812;8.562;2022-12-24T09:28:16;10.15;;;2.83;;
62332;SDS011;48624;49.812;8.562;2022-12-24T09:30:41;14.38;;;4.03;;
62332;SDS011;48624;49.812;8.562;2022-12-24T09:33:06;18.80;;;3.22;;
62332;SDS011;48624;49.812;8.562;2022-12-24T09:35:32;14.25;;;2.97;;
62332;SDS011;48624;49.812;8.562;2022-12-24T09:37:57;18.50;;;3.20;;
62332;SDS011;48624;49.812;8.562;2022-12-24T09:40:33;18.15;;;3.30;;
62332;SDS011;48624;49.812;8.562;2022-12-24T09:43:02;16.63;;;3.75;;
62332;SDS011;48624;49.812;8.562;2022-12-24T09:45:36;16.15;;;3.92;;
62332;SDS011;48624;49.812;8.562;2022-12-24T09:48:04;15.48;;;2.90;;
62332;SDS011;48624;49.812;8.562;2022-12-24T09:50:45;16.83;;;3.35;;
62332;SDS011;48624;49.812;8.562;2022-12-24T09:53:35;19.23;;;3.70;;
62332;SDS011;48624;49.812;8.562;2022-12-24T09:56:02;17.88;;;3.63;;
62332;SDS011;48624;49.812;8.562;2022-12-24T09:58:44;16.90;;;3.63;;
62332;SDS011;48624;49.812;8.562;2022-12-24T10:01:17;25.13;;;4.97;;
62332;SDS011;48624;49.812;8.562;2022-12-24T10:03:44;18.58;;;3.35;;
62332;SDS011;48624;49.812;8.562;2022-12-24T10:06:15;24.38;;;5.10;;
62332;SDS011;48624;49.812;8.562;2022-12-24T10:17:29;15.90;;;2.55;;
62332;SDS011;48624;49.812;8.562;2022-12-24T10:20:22;15.07;;;3.83;;
62332;SDS011;48624;49.812;8.562;2022-12-24T10:26:03;19.38;;;2.50;;
62332;SDS011;48624;49.812;8.562;2022-12-24T10:28:45;22.25;;;4.40;;
62332;SDS011;48624;49.812;8.562;2022-12-24T10:31:16;18.65;;;4.95;;
62332;SDS011;48624;49.812;8.562;2022-12-24T10:33:48;16.35;;;3.63;;
62332;SDS011;48624;49.812;8.562;2022-12-24T10:36:23;15.27;;;3.65;;
62332;SDS011;48624;49.812;8.562;2022-12-24T10:38:52;17.08;;;3.78;;
62332;SDS011;48624;49.812;8.562;2022-12-24T10:41:17;19.45;;;4.00;;
62332;SDS011;48624;49.812;8.562;2022-12-24T10:43:43;17.55;;;4.22;;
62332;SDS011;48624;49.812;8.562;2022-12-24T10:46:18;16.45;;;3.10;;
62332;SDS011;48624;49.812;8.562;2022-12-24T10:48:51;15.65;;;3.80;;
62332;SDS011;48624;49.812;8.562;2022-12-24T10:54:11;16.52;;;3.65;;
62332;SDS011;48624;49.812;8.562;2022-12-24T10:56:40;15.15;;;3.47;;
62332;SDS011;48624;49.812;8.562;2022-12-24T10:59:20;14.80;;;3.30;;
62332;SDS011;48624;49.812;8.562;2022-12-24T11:01:49;15.52;;;3.33;;
62332;SDS011;48624;49.812;8.562;2022-12-24T11:04:19;14.10;;;3.28;;
62332;SDS011;48624;49.812;8.562;2022-12-24T11:07:05;23.83;;;5.13;;
62332;SDS011;48624;49.812;8.562;2022-12-24T11:09:32;16.95;;;4.47;;
62332;SDS011;48624;49.812;8.562;2022-12-24T11:12:01;16.35;;;3.88;;
62332;SDS011;48624;49.812;8.562;2022-12-24T11:14:33;17.00;;;3.40;;
62332;SDS011;48624;49.812;8.562;2022-12-24T11:17:01;19.48;;;4.90;;
62332;SDS011;48624;49.812;8.562;2022-12-24T11:19:38;17.65;;;4.88;;
62332;SDS011;48624;49.812;8.562;2022-12-24T11:22:05;16.75;;;3.88;;
62332;SDS011;48624;49.812;8.562;2022-12-24T11:24:35;12.60;;;3.55;;
62332;SDS011;48624;49.812;8.562;2022-12-24T11:27:22;11.15;;;3.35;;
62332;SDS011;48624;49.812;8.562;2022-12-24T11:35:27;22.52;;;4.50;;
62332;SDS011;48624;49.812;8.562;2022-12-24T11:40:23;17.10;;;3.78;;
62332;SDS011;48624;49.812;8.562;2022-12-24T11:42:50;17.80;;;4.22;;
62332;SDS011;48624;49.812;8.562;2022-12-24T11:45:30;18.02;;;4.82;;
62332;SDS011;48624;49.812;8.562;2022-12-24T11:47:57;17.67;;;3.00;;
62332;SDS011;48624;49.812;8.562;2022-12-24T11:55:44;16.70;;;3.85;;
62332;SDS011;48624;49.812;8.562;2022-12-24T12:09:11;9.73;;;2.63;;
62332;SDS011;48624;49.812;8.562;2022-12-24T12:11:41;21.55;;;4.25;;
62332;SDS011;48624;49.812;8.562;2022-12-24T12:14:16;18.92;;;3.88;;
62332;SDS011;48624;49.812;8.562;2022-12-24T12:19:27;15.68;;;2.63;;
62332;SDS011;48624;49.812;8.562;2022-12-24T12:21:56;18.38;;;4.40;;
62332;SDS011;48624;49.812;8.562;2022-12-24T12:24:28;12.00;;;3.05;;
62332;SDS011;48624;49.812;8.562;2022-12-24T12:27:06;15.93;;;3.42;;
62332;SDS011;48624;49.812;8.562;2022-12-24T12:29:41;14.00;;;4.18;;
62332;SDS011;48624;49.812;8.562;2022-12-24T12:32:24;14.50;;;2.85;;
62332;SDS011;48624;49.812;8.562;2022-12-24T12:38:05;21.88;;;4.28;;
62332;SDS011;48624;49.812;8.562;2022-12-24T12:43:21;22.55;;;4.38;;
62332;SDS011;48624;49.812;8.562;2022-12-24T12:45:52;17.27;;;4.13;;
62332;SDS011;48624;49.812;8.562;2022-12-24T12:48:25;18.50;;;5.78;;
62332;SDS011;48624;49.812;8.562;2022-12-24T12:51:13;29.08;;;15.18;;
62332;SDS011;48624;49.812;8.562;2022-12-24T12:54:02;19.90;;;7.18;;
62332;SDS011;48624;49.812;8.562;2022-12-24T12:56:47;19.75;;;7.18;;
62332;SDS011;48624;49.812;8.562;2022-12-24T12:59:23;13.82;;;3.35;;
62332;SDS011;48624;49.812;8.562;2022-12-24T13:02:11;13.60;;;3.88;;
62332;SDS011;48624;49.812;8.562;2022-12-24T13:04:54;17.40;;;4.47;;
62332;SDS011;48624;49.812;8.562;2022-12-24T13:11:00;15.75;;;3.47;;
62332;SDS011;48624;49.812;8.562;2022-12-24T13:16:32;22.27;;;5.65;;
62332;SDS011;48624;49.812;8.562;2022-12-24T13:22:33;24.17;;;5.03;;
62332;SDS011;48624;49.812;8.562;2022-12-24T13:24:58;15.23;;;5.38;;
62332;SDS011;48624;49.812;8.562;2022-12-24T13:27:33;21.70;;;5.05;;
62332;SDS011;48624;49.812;8.562;2022-12-24T13:30:30;24.75;;;5.60;;
62332;SDS011;48624;49.812;8.562;2022-12-24T13:33:01;14.20;;;4.25;;
62332;SDS011;48624;49.812;8.562;2022-12-24T13:35:29;30.60;;;12.15;;
62332;SDS011;48624;49.812;8.562;2022-12-24T13:38:24;31.92;;;10.50;;
62332;SDS011;48624;49.812;8.562;2022-12-24T13:40:53;24.00;;;7.70;;
62332;SDS011;48624;49.812;8.562;2022-12-24T13:43:19;32.38;;;10.27;;
62332;SDS011;48624;49.812;8.562;2022-12-24T13:45:46;25.50;;;8.02;;
62332;SDS011;48624;49.812;8.562;2022-12-24T13:48:17;30.10;;;10.82;;
62332;SDS011;48624;49.812;8.562;2022-12-24T13:51:00;29.60;;;10.93;;
62332;SDS011;48624;49.812;8.562;2022-12-24T13:53:45;18.75;;;5.03;;
62332;SDS011;48624;49.812;8.562;2022-12-24T13:58:42;23.08;;;5.90;;
62332;SDS011;48624;49.812;8.562;2022-12-24T14:01:10;18.58;;;4.28;;
62332;SDS011;48624;49.812;8.562;2022-12-24T14:03:43;23.95;;;6.00;;
62332;SDS011;48624;49.812;8.562;2022-12-24T14:08:44;15.95;;;4.63;;
62332;SDS011;48624;49.812;8.562;2022-12-24T14:11:16;17.98;;;4.40;;
62332;SDS011;48624;49.812;8.562;2022-12-24T14:13:50;12.45;;;3.88;;
62332;SDS011;48624;49.812;8.562;2022-12-24T14:16:20;14.13;;;2.95;;
62332;SDS011;48624;49.812;8.562;2022-12-24T14:18:58;16.38;;;4.22;;
62332;SDS011;48624;49.812;8.562;2022-12-24T14:21:33;14.48;;;4.03;;
62332;SDS011;48624;49.812;8.562;2022-12-24T14:24:05;16.52;;;3.67;;
62332;SDS011;48624;49.812;8.562;2022-12-24T14:30:30;9.25;;;3.30;;
62332;SDS011;48624;49.812;8.562;2022-12-24T14:32:55;12.05;;;3.85;;
62332;SDS011;48624;49.812;8.562;2022-12-24T14:38:03;11.68;;;3.35;;
62332;SDS011;48624;49.812;8.562;2022-12-24T14:40:48;17.10;;;3.85;;
62332;SDS011;48624;49.812;8.562;2022-12-24T14:43:24;12.75;;;3.67;;
62332;SDS011;48624;49.812;8.562;2022-12-24T14:48:55;13.82;;;4.82;;
62332;SDS011;48624;49.812;8.562;2022-12-24T14:54:20;18.10;;;3.47;;
62332;SDS011;48624;49.812;8.562;2022-12-24T14:57:05;20.80;;;5.15;;
62332;SDS011;48624;49.812;8.562;2022-12-24T14:59:45;13.80;;;3.78;;
62332;SDS011;48624;49.812;8.562;2022-12-24T15:07:56;11.40;;;3.78;;
62332;SDS011;48624;49.812;8.562;2022-12-24T15:12:49;10.77;;;4.22;;
62332;SDS011;48624;49.812;8.562;2022-12-24T15:15:16;20.08;;;4.40;;
62332;SDS011;48624;49.812;8.562;2022-12-24T15:17:42;12.50;;;4.38;;
62332;SDS011;48624;49.812;8.562;2022-12-24T15:20:13;15.82;;;6.57;;
62332;SDS011;48624;49.812;8.562;2022-12-24T15:22:41;33.35;;;11.57;;
62332;SDS011;48624;49.812;8.562;2022-12-24T15:25:21;24.63;;;9.15;;
62332;SDS011;48624;49.812;8.562;2022-12-24T15:27:48;16.67;;;5.95;;
62332;SDS011;48624;49.812;8.562;2022-12-24T15:30:15;17.02;;;6.10;;
62332;SDS011;48624;49.812;8.562;2022-12-24T15:32:44;18.38;;;5.65;;
62332;SDS011;48624;49.812;8.562;2022-12-24T15:35:32;13.40;;;5.25;;
62332;SDS011;48624;49.812;8.562;2022-12-24T15:38:23;19.88;;;6.28;;
62332;SDS011;48624;49.812;8.562;2022-12-24T15:40:53;14.98;;;5.10;;
62332;SDS011;48624;49.812;8.562;2022-12-24T15:43:20;9.88;;;5.45;;
62332;SDS011;48624;49.812;8.562;2022-12-24T15:45:46;15.57;;;5.95;;
62332;SDS011;48624;49.812;8.562;2022-12-24T15:48:25;15.23;;;5.90;;
62332;SDS011;48624;49.812;8.562;2022-12-24T15:50:53;20.67;;;5.78;;
62332;SDS011;48624;49.812;8.562;2022-12-24T15:56:10;14.43;;;4.80;;
62332;SDS011;48624;49.812;8.562;2022-12-24T15:58:37;15.55;;;4.25;;
62332;SDS011;48624;49.812;8.562;2022-12-24T16:06:13;19.30;;;4.60;;
62332;SDS011;48624;49.812;8.562;2022-12-24T16:08:38;19.98;;;5.22;;
62332;SDS011;48624;49.812;8.562;2022-12-24T16:11:08;20.10;;;4.93;;
62332;SDS011;48624;49.812;8.562;2022-12-24T16:13:35;19.48;;;5.18;;
62332;SDS011;48624;49.812;8.562;2022-12-24T16:16:13;18.67;;;5.72;;
62332;SDS011;48624;49.812;8.562;2022-12-24T16:21:27;14.05;;;5.07;;
62332;SDS011;48624;49.812;8.562;2022-12-24T16:24:01;16.15;;;4.53;;
62332;SDS011;48624;49.812;8.562;2022-12-24T16:26:37;16.48;;;5.05;;
62332;SDS011;48624;49.812;8.562;2022-12-24T16:29:04;21.60;;;5.60;;
62332;SDS011;48624;49.812;8.562;2022-12-24T16:31:30;18.38;;;5.70;;
62332;SDS011;48624;49.812;8.562;2022-12-24T16:33:58;16.88;;;5.70;;
62332;SDS011;48624;49.812;8.562;2022-12-24T16:36:25;21.67;;;5.32;;
62332;SDS011;48624;49.812;8.562;2022-12-24T16:38:51;17.85;;;5.47;;
62332;SDS011;48624;49.812;8.562;2022-12-24T16:41:35;17.80;;;6.63;;
62332;SDS011;48624;49.812;8.562;2022-12-24T16:44:20;17.83;;;6.18;;
62332;SDS011;48624;49.812;8.562;2022-12-24T16:46:46;21.00;;;7.00;;